sensor_id;sensor_type;location;lat;lon;timestamp;P1;durP1;ratioP1;P2;durP2;ratioP2
10416;SDS011;62605;49.432;8.680;2024-03-07T05:52:58;11.30;;;6.20;;
10416;SDS011;62605;49.432;8.680;2024-03-07T05:55:25;13.20;;;5.00;;
10416;SDS011;62605;49.432;8.680;2024-03-07T05:57:52;7.77;;;4.53;;
10416;SDS011;62605;49.432;8.680;2024-03-07T06:00:20;12.80;;;5.43;;
10416;SDS011;62605;49.432;8.680;2024-03-07T06:02:52;11.57;;;6.77;;
10416;SDS011;62605;49.432;8.680;2024-03-07T06:05:19;12.37;;;5.60;;
10416;SDS011;62605;49.432;8.680;2024-03-07T06:07:49;15.17;;;6.10;;
10416;SDS011;62605;49.432;8.680;2024-03-07T06:10:16;13.00;;;6.23;;
10416;SDS011;62605;49.432;8.680;2024-03-07T06:12:43;9.77;;;5.93;;
10416;SDS011;62605;49.432;8.680;2024-03-07T06:15:11;8.63;;;5.23;;
10416;SDS011;62605;49.432;8.680;2024-03-07T06:17:39;6.97;;;3.83;;
10416;SDS011;62605;49.432;8.680;2024-03-07T06:20:06;8.57;;;4.47;;
10416;SDS011;62605;49.432;8.680;2024-03-07T06:22:49;10.07;;;4.87;;
10416;SDS011;62605;49.432;8.680;2024-03-07T06:25:17;9.40;;;4.80;;
10416;SDS011;62605;49.432;8.680;2024-03-07T06:27:48;6.90;;;4.43;;
10416;SDS011;62605;49.432;8.680;2024-03-07T06:30:17;9.00;;;4.77;;
10416;SDS011;62605;49.432;8.680;2024-03-07T06:32:44;5.10;;;3.93;;
10416;SDS011;62605;49.432;8.680;2024-03-07T06:35:11;11.30;;;5.57;;
10416;SDS011;62605;49.432;8.680;2024-03-07T06:37:41;9.27;;;4.90;;
10416;SDS011;62605;49.432;8.680;2024-03-07T06:40:10;8.47;;;5.33;;
10416;SDS011;62605;49.432;8.680;2024-03-07T06:42:40;6.93;;;4.40;;
10416;SDS011;62605;49.432;8.680;2024-03-07T06:45:07;8.17;;;5.47;;
10416;SDS011;62605;49.432;8.680;2024-03-07T06:47:34;13.77;;;5.80;;
10416;SDS011;62605;49.432;8.680;2024-03-07T06:50:02;7.17;;;4.17;;
10416;SDS011;62605;49.432;8.680;2024-03-07T06:52:33;9.10;;;4.57;;
10416;SDS011;62605;49.432;8.680;2024-03-07T06:55:01;7.10;;;5.23;;
10416;SDS011;62605;49.432;8.680;2024-03-07T06:57:30;7.63;;;4.70;;
10416;SDS011;62605;49.432;8.680;2024-03-07T06:59:57;7.97;;;3.60;;
10416;SDS011;62605;49.432;8.680;2024-03-07T07:02:24;7.67;;;5.00;;
10416;SDS011;62605;49.432;8.680;2024-03-07T07:04:52;9.17;;;4.90;;
10416;SDS011;62605;49.432;8.680;2024-03-07T07:07:20;9.13;;;5.60;;
10416;SDS011;62605;49.432;8.680;2024-03-07T07:09:47;7.67;;;4.33;;
10416;SDS011;62605;49.432;8.680;2024-03-07T07:12:16;9.90;;;5.03;;
10416;SDS011;62605;49.432;8.680;2024-03-07T07:14:46;8.20;;;4.63;;
10416;SDS011;62605;49.432;8.680;2024-03-07T07:17:13;9.37;;;5.03;;
10416;SDS011;62605;49.432;8.680;2024-03-07T07:19:40;7.73;;;4.80;;
10416;SDS011;62605;49.432;8.680;2024-03-07T07:22:07;9.13;;;5.50;;
10416;SDS011;62605;49.432;8.680;2024-03-07T07:24:37;12.60;;;6.27;;
10416;SDS011;62605;49.432;8.680;2024-03-07T07:27:05;9.30;;;6.07;;
10416;SDS011;62605;49.432;8.680;2024-03-07T07:29:32;10.60;;;5.43;;
10416;SDS011;62605;49.432;8.680;2024-03-07T07:32:01;14.80;;;5.90;;
10416;SDS011;62605;49.432;8.680;2024-03-07T07:34:28;8.57;;;4.73;;
10416;SDS011;62605;49.432;8.680;2024-03-07T07:36:55;9.27;;;6.00;;
10416;SDS011;62605;49.432;8.680;2024-03-07T07:39:23;14.20;;;6.37;;
10416;SDS011;62605;49.432;8.680;2024-03-07T07:41:50;11.43;;;6.27;;
10416;SDS011;62605;49.432;8.680;2024-03-07T07:44:17;12.47;;;5.73;;
10416;SDS011;62605;49.432;8.680;2024-03-07T07:46:44;10.30;;;5.50;;
10416;SDS011;62605;49.432;8.680;2024-03-07T07:49:13;12.97;;;6.80;;
10416;SDS011;62605;49.432;8.680;2024-03-07T07:51:41;9.03;;;5.53;;
10416;SDS011;62605;49.432;8.680;2024-03-07T07:54:08;12.27;;;6.47;;
10416;SDS011;62605;49.432;8.680;2024-03-07T07:56:35;13.93;;;7.23;;
10416;SDS011;62605;49.432;8.680;2024-03-07T07:59:03;10.27;;;6.60;;
10416;SDS011;62605;49.432;8.680;2024-03-07T08:01:30;9.57;;;6.10;;
10416;SDS011;62605;49.432;8.680;2024-03-07T08:04:00;13.13;;;6.17;;
10416;SDS011;62605;49.432;8.680;2024-03-07T08:06:28;15.40;;;6.30;;
10416;SDS011;62605;49.432;8.680;2024-03-07T08:08:56;14.17;;;6.13;;
10416;SDS011;62605;49.432;8.680;2024-03-07T08:11:23;12.53;;;6.20;;
10416;SDS011;62605;49.432;8.680;2024-03-07T08:13:50;10.30;;;6.23;;
10416;SDS011;62605;49.432;8.680;2024-03-07T08:16:17;11.00;;;6.07;;
10416;SDS011;62605;49.432;8.680;2024-03-07T08:18:44;10.30;;;5.90;;
10416;SDS011;62605;49.432;8.680;2024-03-07T08:21:12;10.97;;;5.77;;
10416;SDS011;62605;49.432;8.680;2024-03-07T08:23:40;8.73;;;5.70;;
10416;SDS011;62605;49.432;8.680;2024-03-07T08:26:08;13.33;;;6.53;;
10416;SDS011;62605;49.432;8.680;2024-03-07T08:28:35;10.90;;;5.83;;
10416;SDS011;62605;49.432;8.680;2024-03-07T08:31:02;11.30;;;5.77;;
10416;SDS011;62605;49.432;8.680;2024-03-07T08:33:30;9.20;;;5.57;;
10416;SDS011;62605;49.432;8.680;2024-03-07T08:35:58;9.33;;;5.53;;
10416;SDS011;62605;49.432;8.680;2024-03-07T08:38:26;9.33;;;5.10;;
10416;SDS011;62605;49.432;8.680;2024-03-07T08:40:54;13.13;;;5.70;;
10416;SDS011;62605;49.432;8.680;2024-03-07T08:43:22;12.43;;;5.40;;
10416;SDS011;62605;49.432;8.680;2024-03-07T08:45:53;12.00;;;4.63;;
10416;SDS011;62605;49.432;8.680;2024-03-07T08:48:20;9.37;;;4.23;;
10416;SDS011;62605;49.432;8.680;2024-03-07T08:50:47;8.10;;;5.03;;
10416;SDS011;62605;49.432;8.680;2024-03-07T08:53:15;8.07;;;5.53;;
10416;SDS011;62605;49.432;8.680;2024-03-07T08:55:43;8.73;;;5.60;;
10416;SDS011;62605;49.432;8.680;2024-03-07T08:58:12;7.87;;;4.60;;
10416;SDS011;62605;49.432;8.680;2024-03-07T09:00:39;7.77;;;4.07;;
10416;SDS011;62605;49.432;8.680;2024-03-07T09:03:06;8.10;;;5.23;;
10416;SDS011;62605;49.432;8.680;2024-03-07T09:05:36;7.00;;;4.47;;
10416;SDS011;62605;49.432;8.680;2024-03-07T09:08:04;11.90;;;5.97;;
10416;SDS011;62605;49.432;8.680;2024-03-07T09:10:32;7.10;;;4.27;;
10416;SDS011;62605;49.432;8.680;2024-03-07T09:12:59;7.80;;;5.10;;
10416;SDS011;62605;49.432;8.680;2024-03-07T09:15:28;7.23;;;4.93;;
10416;SDS011;62605;49.432;8.680;2024-03-07T09:17:56;9.03;;;5.23;;
10416;SDS011;62605;49.432;8.680;2024-03-07T09:20:24;12.57;;;5.33;;
10416;SDS011;62605;49.432;8.680;2024-03-07T09:22:51;10.40;;;5.43;;
10416;SDS011;62605;49.432;8.680;2024-03-07T09:25:19;12.00;;;5.50;;
10416;SDS011;62605;49.432;8.680;2024-03-07T09:27:46;9.67;;;5.87;;
10416;SDS011;62605;49.432;8.680;2024-03-07T09:30:14;9.30;;;5.37;;
10416;SDS011;62605;49.432;8.680;2024-03-07T09:32:46;10.70;;;5.37;;
10416;SDS011;62605;49.432;8.680;2024-03-07T09:35:14;9.27;;;5.40;;
10416;SDS011;62605;49.432;8.680;2024-03-07T09:37:42;12.23;;;5.40;;
10416;SDS011;62605;49.432;8.680;2024-03-07T09:40:11;9.30;;;5.30;;
10416;SDS011;62605;49.432;8.680;2024-03-07T09:42:41;11.07;;;5.30;;
10416;SDS011;62605;49.432;8.680;2024-03-07T09:45:16;8.40;;;5.23;;
10416;SDS011;62605;49.432;8.680;2024-03-07T09:47:46;8.00;;;5.03;;
10416;SDS011;62605;49.432;8.680;2024-03-07T09:50:16;16.20;;;6.60;;
10416;SDS011;62605;49.432;8.680;2024-03-07T09:52:47;8.40;;;4.77;;
10416;SDS011;62605;49.432;8.680;2024-03-07T09:55:15;9.10;;;5.87;;
10416;SDS011;62605;49.432;8.680;2024-03-07T09:57:45;9.17;;;5.70;;
10416;SDS011;62605;49.432;8.680;2024-03-07T10:00:13;11.50;;;6.83;;
10416;SDS011;62605;49.432;8.680;2024-03-07T10:02:51;13.50;;;6.97;;
10416;SDS011;62605;49.432;8.680;2024-03-07T10:05:22;10.70;;;6.00;;
10416;SDS011;62605;49.432;8.680;2024-03-07T10:07:50;11.37;;;5.30;;
10416;SDS011;62605;49.432;8.680;2024-03-07T10:10:18;11.23;;;6.50;;
10416;SDS011;62605;49.432;8.680;2024-03-07T10:12:47;8.67;;;5.53;;
10416;SDS011;62605;49.432;8.680;2024-03-07T10:15:15;13.30;;;6.50;;
10416;SDS011;62605;49.432;8.680;2024-03-07T10:17:42;8.77;;;5.67;;
10416;SDS011;62605;49.432;8.680;2024-03-07T10:20:14;14.13;;;6.27;;
10416;SDS011;62605;49.432;8.680;2024-03-07T10:22:45;12.70;;;6.37;;
10416;SDS011;62605;49.432;8.680;2024-03-07T10:25:16;11.23;;;6.90;;
10416;SDS011;62605;49.432;8.680;2024-03-07T10:27:45;12.27;;;6.03;;
10416;SDS011;62605;49.432;8.680;2024-03-07T10:30:14;13.53;;;7.23;;
10416;SDS011;62605;49.432;8.680;2024-03-07T10:32:46;16.00;;;6.27;;
10416;SDS011;62605;49.432;8.680;2024-03-07T10:35:19;8.70;;;5.50;;
10416;SDS011;62605;49.432;8.680;2024-03-07T10:37:47;11.77;;;6.73;;
10416;SDS011;62605;49.432;8.680;2024-03-07T10:40:15;15.73;;;6.37;;
10416;SDS011;62605;49.432;8.680;2024-03-07T10:42:45;15.37;;;7.70;;
10416;SDS011;62605;49.432;8.680;2024-03-07T10:45:17;8.67;;;5.77;;
10416;SDS011;62605;49.432;8.680;2024-03-07T10:47:48;11.90;;;6.13;;
10416;SDS011;62605;49.432;8.680;2024-03-07T10:50:23;10.90;;;6.27;;
10416;SDS011;62605;49.432;8.680;2024-03-07T10:52:58;9.27;;;5.60;;
10416;SDS011;62605;49.432;8.680;2024-03-07T10:55:30;9.77;;;5.90;;
10416;SDS011;62605;49.432;8.680;2024-03-07T10:58:06;13.33;;;6.63;;
10416;SDS011;62605;49.432;8.680;2024-03-07T11:00:38;12.07;;;6.17;;
10416;SDS011;62605;49.432;8.680;2024-03-07T11:03:11;11.30;;;6.53;;
10416;SDS011;62605;49.432;8.680;2024-03-07T11:05:40;11.20;;;6.13;;
10416;SDS011;62605;49.432;8.680;2024-03-07T11:08:09;12.73;;;6.57;;
10416;SDS011;62605;49.432;8.680;2024-03-07T11:10:38;9.53;;;6.10;;
10416;SDS011;62605;49.432;8.680;2024-03-07T11:13:05;12.73;;;7.00;;
10416;SDS011;62605;49.432;8.680;2024-03-07T11:15:36;9.70;;;6.10;;
10416;SDS011;62605;49.432;8.680;2024-03-07T11:18:06;9.87;;;6.40;;
10416;SDS011;62605;49.432;8.680;2024-03-07T11:20:35;11.57;;;6.63;;
10416;SDS011;62605;49.432;8.680;2024-03-07T11:25:54;11.73;;;6.67;;
10416;SDS011;62605;49.432;8.680;2024-03-07T11:28:30;14.43;;;6.70;;
10416;SDS011;62605;49.432;8.680;2024-03-07T11:33:39;17.03;;;9.03;;
10416;SDS011;62605;49.432;8.680;2024-03-07T11:36:08;10.87;;;6.43;;
10416;SDS011;62605;49.432;8.680;2024-03-07T11:38:38;11.90;;;6.83;;
10416;SDS011;62605;49.432;8.680;2024-03-07T11:41:10;12.67;;;6.77;;
10416;SDS011;62605;49.432;8.680;2024-03-07T11:43:38;10.93;;;5.57;;
10416;SDS011;62605;49.432;8.680;2024-03-07T11:46:07;10.43;;;6.33;;
10416;SDS011;62605;49.432;8.680;2024-03-07T11:48:38;8.77;;;5.57;;
10416;SDS011;62605;49.432;8.680;2024-03-07T11:51:07;12.93;;;7.10;;
10416;SDS011;62605;49.432;8.680;2024-03-07T11:53:39;11.57;;;7.60;;
10416;SDS011;62605;49.432;8.680;2024-03-07T11:56:07;14.33;;;6.97;;
10416;SDS011;62605;49.432;8.680;2024-03-07T11:58:41;10.83;;;6.00;;
10416;SDS011;62605;49.432;8.680;2024-03-07T12:01:17;9.20;;;5.77;;
10416;SDS011;62605;49.432;8.680;2024-03-07T12:03:50;11.07;;;6.17;;
10416;SDS011;62605;49.432;8.680;2024-03-07T12:06:18;10.10;;;5.60;;
10416;SDS011;62605;49.432;8.680;2024-03-07T12:08:47;11.43;;;5.73;;
10416;SDS011;62605;49.432;8.680;2024-03-07T12:11:14;11.87;;;6.67;;
10416;SDS011;62605;49.432;8.680;2024-03-07T12:13:43;10.53;;;5.87;;
10416;SDS011;62605;49.432;8.680;2024-03-07T12:16:10;13.13;;;6.37;;
10416;SDS011;62605;49.432;8.680;2024-03-07T12:18:38;7.40;;;4.37;;
10416;SDS011;62605;49.432;8.680;2024-03-07T12:21:25;11.17;;;5.57;;
10416;SDS011;62605;49.432;8.680;2024-03-07T12:23:54;9.73;;;6.27;;
10416;SDS011;62605;49.432;8.680;2024-03-07T12:26:21;9.50;;;5.30;;
10416;SDS011;62605;49.432;8.680;2024-03-07T12:28:50;10.10;;;5.20;;
10416;SDS011;62605;49.432;8.680;2024-03-07T12:31:18;7.87;;;5.00;;
10416;SDS011;62605;49.432;8.680;2024-03-07T12:33:49;7.83;;;5.00;;
10416;SDS011;62605;49.432;8.680;2024-03-07T12:36:17;9.77;;;5.60;;
10416;SDS011;62605;49.432;8.680;2024-03-07T12:38:47;9.03;;;5.37;;
10416;SDS011;62605;49.432;8.680;2024-03-07T12:41:22;9.73;;;5.60;;
10416;SDS011;62605;49.432;8.680;2024-03-07T12:43:49;8.80;;;5.33;;
10416;SDS011;62605;49.432;8.680;2024-03-07T12:46:17;10.80;;;5.67;;
10416;SDS011;62605;49.432;8.680;2024-03-07T12:48:44;8.57;;;4.90;;
10416;SDS011;62605;49.432;8.680;2024-03-07T12:51:11;7.60;;;5.73;;
10416;SDS011;62605;49.432;8.680;2024-03-07T12:53:42;7.23;;;4.90;;
10416;SDS011;62605;49.432;8.680;2024-03-07T12:56:10;8.07;;;4.40;;
10416;SDS011;62605;49.432;8.680;2024-03-07T12:58:41;8.50;;;5.07;;
10416;SDS011;62605;49.432;8.680;2024-03-07T13:01:10;9.83;;;6.03;;
10416;SDS011;62605;49.432;8.680;2024-03-07T13:03:38;9.20;;;5.03;;
10416;SDS011;62605;49.432;8.680;2024-03-07T13:06:07;7.57;;;5.33;;
10416;SDS011;62605;49.432;8.680;2024-03-07T13:08:36;9.53;;;4.87;;
10416;SDS011;62605;49.432;8.680;2024-03-07T13:11:03;9.30;;;4.63;;
10416;SDS011;62605;49.432;8.680;2024-03-07T13:13:32;7.57;;;5.20;;
10416;SDS011;62605;49.432;8.680;2024-03-07T13:15:59;9.20;;;5.03;;
10416;SDS011;62605;49.432;8.680;2024-03-07T13:18:26;7.77;;;4.97;;
10416;SDS011;62605;49.432;8.680;2024-03-07T13:20:53;7.50;;;5.13;;
10416;SDS011;62605;49.432;8.680;2024-03-07T13:23:21;8.43;;;5.30;;
10416;SDS011;62605;49.432;8.680;2024-03-07T13:25:53;10.73;;;5.37;;
10416;SDS011;62605;49.432;8.680;2024-03-07T13:28:20;7.30;;;5.00;;
10416;SDS011;62605;49.432;8.680;2024-03-07T13:30:51;10.83;;;5.17;;
10416;SDS011;62605;49.432;8.680;2024-03-07T13:33:20;7.90;;;4.70;;
10416;SDS011;62605;49.432;8.680;2024-03-07T13:35:49;8.50;;;5.33;;
10416;SDS011;62605;49.432;8.680;2024-03-07T13:38:17;8.80;;;4.80;;
10416;SDS011;62605;49.432;8.680;2024-03-07T13:40:44;9.73;;;4.70;;
10416;SDS011;62605;49.432;8.680;2024-03-07T13:43:11;8.17;;;5.13;;
10416;SDS011;62605;49.432;8.680;2024-03-07T13:45:38;11.43;;;4.77;;
10416;SDS011;62605;49.432;8.680;2024-03-07T13:48:09;7.77;;;4.87;;
10416;SDS011;62605;49.432;8.680;2024-03-07T13:50:38;8.70;;;5.07;;
10416;SDS011;62605;49.432;8.680;2024-03-07T13:53:21;6.97;;;4.77;;
10416;SDS011;62605;49.432;8.680;2024-03-07T13:56:06;9.97;;;5.00;;
10416;SDS011;62605;49.432;8.680;2024-03-07T14:01:52;9.33;;;5.07;;
10416;SDS011;62605;49.432;8.680;2024-03-07T14:10:44;8.40;;;5.40;;
10416;SDS011;62605;49.432;8.680;2024-03-07T14:13:44;7.40;;;5.13;;
10416;SDS011;62605;49.432;8.680;2024-03-07T14:16:40;8.90;;;4.90;;
10416;SDS011;62605;49.432;8.680;2024-03-07T14:22:48;7.70;;;4.90;;
10416;SDS011;62605;49.432;8.680;2024-03-07T14:25:43;7.00;;;3.90;;
10416;SDS011;62605;49.432;8.680;2024-03-07T14:28:32;9.37;;;5.23;;
10416;SDS011;62605;49.432;8.680;2024-03-07T14:31:12;8.20;;;4.57;;
10416;SDS011;62605;49.432;8.680;2024-03-07T14:33:48;10.50;;;5.00;;
10416;SDS011;62605;49.432;8.680;2024-03-07T14:36:23;5.67;;;4.07;;
10416;SDS011;62605;49.432;8.680;2024-03-07T14:39:03;7.80;;;4.83;;
10416;SDS011;62605;49.432;8.680;2024-03-07T14:41:48;6.60;;;4.87;;
10416;SDS011;62605;49.432;8.680;2024-03-07T14:44:18;5.87;;;4.30;;
10416;SDS011;62605;49.432;8.680;2024-03-07T14:46:47;7.90;;;4.73;;
10416;SDS011;62605;49.432;8.680;2024-03-07T14:49:20;7.60;;;4.53;;
10416;SDS011;62605;49.432;8.680;2024-03-07T14:51:48;7.77;;;4.93;;
10416;SDS011;62605;49.432;8.680;2024-03-07T14:54:20;10.93;;;5.90;;
10416;SDS011;62605;49.432;8.680;2024-03-07T14:56:47;8.97;;;4.70;;
10416;SDS011;62605;49.432;8.680;2024-03-07T14:59:14;8.10;;;4.50;;
10416;SDS011;62605;49.432;8.680;2024-03-07T15:01:43;7.57;;;4.50;;
10416;SDS011;62605;49.432;8.680;2024-03-07T15:04:10;7.87;;;5.10;;
10416;SDS011;62605;49.432;8.680;2024-03-07T15:06:39;7.57;;;4.97;;
10416;SDS011;62605;49.432;8.680;2024-03-07T15:09:07;8.23;;;4.53;;
10416;SDS011;62605;49.432;8.680;2024-03-07T15:11:36;7.23;;;4.40;;
10416;SDS011;62605;49.432;8.680;2024-03-07T15:14:05;7.63;;;5.07;;
10416;SDS011;62605;49.432;8.680;2024-03-07T15:16:34;6.93;;;4.73;;
10416;SDS011;62605;49.432;8.680;2024-03-07T15:19:02;7.47;;;5.00;;
10416;SDS011;62605;49.432;8.680;2024-03-07T15:21:30;9.03;;;5.20;;
10416;SDS011;62605;49.432;8.680;2024-03-07T15:23:58;9.17;;;5.40;;
10416;SDS011;62605;49.432;8.680;2024-03-07T15:26:27;7.47;;;4.37;;
10416;SDS011;62605;49.432;8.680;2024-03-07T15:28:58;7.10;;;4.60;;
10416;SDS011;62605;49.432;8.680;2024-03-07T15:31:26;6.40;;;4.30;;
10416;SDS011;62605;49.432;8.680;2024-03-07T15:33:54;7.07;;;4.13;;
10416;SDS011;62605;49.432;8.680;2024-03-07T15:36:22;7.73;;;4.90;;
10416;SDS011;62605;49.432;8.680;2024-03-07T15:38:51;8.37;;;4.50;;
10416;SDS011;62605;49.432;8.680;2024-03-07T15:41:18;8.50;;;5.17;;
10416;SDS011;62605;49.432;8.680;2024-03-07T15:43:47;10.23;;;5.17;;
10416;SDS011;62605;49.432;8.680;2024-03-07T15:46:16;6.50;;;4.13;;
10416;SDS011;62605;49.432;8.680;2024-03-07T15:48:43;8.53;;;4.80;;
10416;SDS011;62605;49.432;8.680;2024-03-07T15:51:13;7.13;;;4.80;;
10416;SDS011;62605;49.432;8.680;2024-03-07T15:53:40;9.40;;;3.93;;
10416;SDS011;62605;49.432;8.680;2024-03-07T15:56:08;7.93;;;4.20;;
10416;SDS011;62605;49.432;8.680;2024-03-07T15:58:35;7.00;;;4.10;;
10416;SDS011;62605;49.432;8.680;2024-03-07T16:01:02;8.00;;;4.77;;
10416;SDS011;62605;49.432;8.680;2024-03-07T16:03:33;9.77;;;5.20;;
10416;SDS011;62605;49.432;8.680;2024-03-07T16:06:00;8.43;;;4.83;;
10416;SDS011;62605;49.432;8.680;2024-03-07T16:08:30;5.70;;;4.33;;
10416;SDS011;62605;49.432;8.680;2024-03-07T16:10:58;8.20;;;4.33;;
10416;SDS011;62605;49.432;8.680;2024-03-07T16:13:25;5.17;;;4.10;;
10416;SDS011;62605;49.432;8.680;2024-03-07T16:15:53;8.07;;;4.20;;
10416;SDS011;62605;49.432;8.680;2024-03-07T16:18:20;6.67;;;4.20;;
10416;SDS011;62605;49.432;8.680;2024-03-07T16:20:50;7.57;;;4.27;;
10416;SDS011;62605;49.432;8.680;2024-03-07T16:23:17;4.73;;;3.20;;
10416;SDS011;62605;49.432;8.680;2024-03-07T16:25:44;5.40;;;3.83;;
10416;SDS011;62605;49.432;8.680;2024-03-07T16:28:11;7.77;;;4.40;;
10416;SDS011;62605;49.432;8.680;2024-03-07T16:30:39;6.77;;;4.10;;
10416;SDS011;62605;49.432;8.680;2024-03-07T16:33:09;6.67;;;3.90;;
10416;SDS011;62605;49.432;8.680;2024-03-07T16:35:36;6.63;;;3.70;;
10416;SDS011;62605;49.432;8.680;2024-03-07T16:38:05;5.77;;;4.13;;
10416;SDS011;62605;49.432;8.680;2024-03-07T16:40:34;7.17;;;4.47;;
10416;SDS011;62605;49.432;8.680;2024-03-07T16:43:02;10.00;;;4.80;;
10416;SDS011;62605;49.432;8.680;2024-03-07T16:45:33;6.57;;;4.97;;
10416;SDS011;62605;49.432;8.680;2024-03-07T16:48:01;7.23;;;3.97;;
10416;SDS011;62605;49.432;8.680;2024-03-07T16:50:29;5.40;;;4.07;;
10416;SDS011;62605;49.432;8.680;2024-03-07T16:52:57;7.33;;;4.40;;
10416;SDS011;62605;49.432;8.680;2024-03-07T16:55:31;7.37;;;4.40;;
10416;SDS011;62605;49.432;8.680;2024-03-07T16:57:58;5.73;;;4.03;;
10416;SDS011;62605;49.432;8.680;2024-03-07T17:00:28;7.63;;;4.57;;
10416;SDS011;62605;49.432;8.680;2024-03-07T17:02:57;6.80;;;3.53;;
10416;SDS011;62605;49.432;8.680;2024-03-07T17:05:25;6.37;;;3.77;;
10416;SDS011;62605;49.432;8.680;2024-03-07T17:07:53;7.53;;;4.30;;
10416;SDS011;62605;49.432;8.680;2024-03-07T17:10:20;6.60;;;4.27;;
10416;SDS011;62605;49.432;8.680;2024-03-07T17:12:51;8.80;;;4.63;;
10416;SDS011;62605;49.432;8.680;2024-03-07T17:15:18;6.53;;;4.10;;
10416;SDS011;62605;49.432;8.680;2024-03-07T17:17:47;7.10;;;4.57;;
10416;SDS011;62605;49.432;8.680;2024-03-07T17:20:17;6.67;;;4.13;;
10416;SDS011;62605;49.432;8.680;2024-03-07T17:22:46;10.27;;;5.07;;
10416;SDS011;62605;49.432;8.680;2024-03-07T17:25:15;8.43;;;4.80;;
10416;SDS011;62605;49.432;8.680;2024-03-07T17:27:43;6.97;;;4.00;;
10416;SDS011;62605;49.432;8.680;2024-03-07T17:30:16;8.60;;;4.60;;
10416;SDS011;62605;49.432;8.680;2024-03-07T17:32:45;5.77;;;3.63;;
10416;SDS011;62605;49.432;8.680;2024-03-07T17:35:13;5.50;;;3.93;;
10416;SDS011;62605;49.432;8.680;2024-03-07T17:37:45;7.10;;;4.03;;
10416;SDS011;62605;49.432;8.680;2024-03-07T17:40:13;6.20;;;3.67;;
10416;SDS011;62605;49.432;8.680;2024-03-07T17:42:45;5.87;;;4.07;;
10416;SDS011;62605;49.432;8.680;2024-03-07T17:45:17;6.43;;;3.43;;
10416;SDS011;62605;49.432;8.680;2024-03-07T17:47:45;7.87;;;4.00;;
10416;SDS011;62605;49.432;8.680;2024-03-07T17:50:15;5.70;;;4.07;;
10416;SDS011;62605;49.432;8.680;2024-03-07T17:52:46;6.73;;;4.30;;
10416;SDS011;62605;49.432;8.680;2024-03-07T17:55:15;5.53;;;3.47;;
10416;SDS011;62605;49.432;8.680;2024-03-07T17:57:49;5.97;;;3.93;;
10416;SDS011;62605;49.432;8.680;2024-03-07T18:00:20;8.43;;;4.70;;
10416;SDS011;62605;49.432;8.680;2024-03-07T18:02:53;6.50;;;4.27;;
10416;SDS011;62605;49.432;8.680;2024-03-07T18:05:22;5.50;;;4.03;;
10416;SDS011;62605;49.432;8.680;2024-03-07T18:07:51;6.27;;;4.10;;
10416;SDS011;62605;49.432;8.680;2024-03-07T18:10:20;6.97;;;4.00;;
10416;SDS011;62605;49.432;8.680;2024-03-07T18:12:48;7.53;;;4.20;;
10416;SDS011;62605;49.432;8.680;2024-03-07T18:15:20;6.07;;;3.37;;
10416;SDS011;62605;49.432;8.680;2024-03-07T18:17:52;6.50;;;3.63;;
10416;SDS011;62605;49.432;8.680;2024-03-07T18:20:21;7.17;;;3.93;;
10416;SDS011;62605;49.432;8.680;2024-03-07T18:22:52;6.03;;;3.60;;
10416;SDS011;62605;49.432;8.680;2024-03-07T18:25:21;7.27;;;3.70;;
10416;SDS011;62605;49.432;8.680;2024-03-07T18:27:49;7.00;;;3.93;;
10416;SDS011;62605;49.432;8.680;2024-03-07T18:30:21;6.73;;;4.20;;
10416;SDS011;62605;49.432;8.680;2024-03-07T18:32:49;5.83;;;3.83;;
10416;SDS011;62605;49.432;8.680;2024-03-07T18:35:18;5.53;;;3.97;;
10416;SDS011;62605;49.432;8.680;2024-03-07T18:37:48;7.43;;;4.40;;
10416;SDS011;62605;49.432;8.680;2024-03-07T18:40:17;6.37;;;3.83;;
10416;SDS011;62605;49.432;8.680;2024-03-07T18:42:48;5.57;;;3.57;;
10416;SDS011;62605;49.432;8.680;2024-03-07T18:45:18;6.70;;;3.67;;
10416;SDS011;62605;49.432;8.680;2024-03-07T18:47:51;5.57;;;3.70;;
10416;SDS011;62605;49.432;8.680;2024-03-07T18:50:19;8.90;;;3.80;;
10416;SDS011;62605;49.432;8.680;2024-03-07T18:52:47;7.73;;;3.50;;
10416;SDS011;62605;49.432;8.680;2024-03-07T18:55:16;7.87;;;4.00;;
10416;SDS011;62605;49.432;8.680;2024-03-07T18:57:46;6.77;;;3.67;;
10416;SDS011;62605;49.432;8.680;2024-03-07T19:00:15;7.13;;;3.80;;
10416;SDS011;62605;49.432;8.680;2024-03-07T19:02:58;6.40;;;3.27;;
10416;SDS011;62605;49.432;8.680;2024-03-07T19:05:26;8.13;;;4.10;;
10416;SDS011;62605;49.432;8.680;2024-03-07T19:07:54;6.17;;;3.37;;
10416;SDS011;62605;49.432;8.680;2024-03-07T19:10:23;7.97;;;3.57;;
10416;SDS011;62605;49.432;8.680;2024-03-07T19:12:54;7.13;;;3.80;;
10416;SDS011;62605;49.432;8.680;2024-03-07T19:15:21;10.17;;;4.43;;
10416;SDS011;62605;49.432;8.680;2024-03-07T19:17:49;4.97;;;2.97;;
10416;SDS011;62605;49.432;8.680;2024-03-07T19:20:18;6.93;;;4.07;;
10416;SDS011;62605;49.432;8.680;2024-03-07T19:22:45;8.90;;;4.13;;
10416;SDS011;62605;49.432;8.680;2024-03-07T19:25:13;6.10;;;3.67;;
10416;SDS011;62605;49.432;8.680;2024-03-07T19:27:43;5.03;;;3.23;;
10416;SDS011;62605;49.432;8.680;2024-03-07T19:30:14;6.80;;;4.10;;
10416;SDS011;62605;49.432;8.680;2024-03-07T19:32:42;7.27;;;4.10;;
10416;SDS011;62605;49.432;8.680;2024-03-07T19:35:10;5.43;;;3.43;;
10416;SDS011;62605;49.432;8.680;2024-03-07T19:37:41;7.53;;;3.97;;
10416;SDS011;62605;49.432;8.680;2024-03-07T19:40:09;6.03;;;3.63;;
10416;SDS011;62605;49.432;8.680;2024-03-07T19:42:38;6.30;;;4.20;;
10416;SDS011;62605;49.432;8.680;2024-03-07T19:45:06;7.50;;;3.93;;
10416;SDS011;62605;49.432;8.680;2024-03-07T19:47:38;8.40;;;4.60;;
10416;SDS011;62605;49.432;8.680;2024-03-07T19:50:06;5.27;;;3.53;;
10416;SDS011;62605;49.432;8.680;2024-03-07T19:52:35;6.93;;;4.23;;
10416;SDS011;62605;49.432;8.680;2024-03-07T19:55:05;5.10;;;3.50;;
10416;SDS011;62605;49.432;8.680;2024-03-07T19:57:35;6.27;;;3.43;;
10416;SDS011;62605;49.432;8.680;2024-03-07T20:00:04;7.97;;;3.47;;
10416;SDS011;62605;49.432;8.680;2024-03-07T20:02:35;6.27;;;3.97;;
10416;SDS011;62605;49.432;8.680;2024-03-07T20:05:04;5.90;;;3.63;;
10416;SDS011;62605;49.432;8.680;2024-03-07T20:07:33;7.03;;;3.97;;
10416;SDS011;62605;49.432;8.680;2024-03-07T20:10:00;7.73;;;3.90;;
10416;SDS011;62605;49.432;8.680;2024-03-07T20:12:33;8.30;;;3.70;;
10416;SDS011;62605;49.432;8.680;2024-03-07T20:15:02;6.13;;;3.57;;
10416;SDS011;62605;49.432;8.680;2024-03-07T20:17:30;6.30;;;3.80;;
10416;SDS011;62605;49.432;8.680;2024-03-07T20:19:58;5.50;;;4.00;;
10416;SDS011;62605;49.432;8.680;2024-03-07T20:22:38;6.13;;;4.10;;
10416;SDS011;62605;49.432;8.680;2024-03-07T20:25:06;7.33;;;3.90;;
10416;SDS011;62605;49.432;8.680;2024-03-07T20:27:39;7.47;;;4.70;;
10416;SDS011;62605;49.432;8.680;2024-03-07T20:30:07;6.83;;;4.20;;
10416;SDS011;62605;49.432;8.680;2024-03-07T20:32:36;8.30;;;4.00;;
10416;SDS011;62605;49.432;8.680;2024-03-07T20:35:03;8.00;;;4.33;;
10416;SDS011;62605;49.432;8.680;2024-03-07T20:37:33;8.77;;;4.37;;
10416;SDS011;62605;49.432;8.680;2024-03-07T20:40:01;6.03;;;3.83;;
10416;SDS011;62605;49.432;8.680;2024-03-07T20:42:30;6.83;;;3.97;;
10416;SDS011;62605;49.432;8.680;2024-03-07T20:44:59;8.23;;;4.97;;
10416;SDS011;62605;49.432;8.680;2024-03-07T20:47:26;7.90;;;4.00;;
10416;SDS011;62605;49.432;8.680;2024-03-07T20:49:55;10.57;;;4.23;;
10416;SDS011;62605;49.432;8.680;2024-03-07T20:52:22;7.27;;;4.13;;
10416;SDS011;62605;49.432;8.680;2024-03-07T20:54:53;7.07;;;4.27;;
10416;SDS011;62605;49.432;8.680;2024-03-07T20:57:23;11.07;;;4.47;;
10416;SDS011;62605;49.432;8.680;2024-03-07T20:59:53;8.90;;;4.80;;
10416;SDS011;62605;49.432;8.680;2024-03-07T21:02:21;9.03;;;4.33;;
10416;SDS011;62605;49.432;8.680;2024-03-07T21:04:49;8.80;;;4.20;;
10416;SDS011;62605;49.432;8.680;2024-03-07T21:07:16;8.50;;;4.53;;